sensor_id;sensor_type;location;lat;lon;timestamp;temperature;humidity
11569;DHT22;5840;46.894;15.542;2023-02-01T00:02:00;0.00;99.90
11569;DHT22;5840;46.894;15.542;2023-02-01T00:04:29;0.00;99.90
11569;DHT22;5840;46.894;15.542;2023-02-01T00:06:56;0.00;99.90
11569;DHT22;5840;46.894;15.542;2023-02-01T00:09:23;-0.10;99.90
11569;DHT22;5840;46.894;15.542;2023-02-01T00:11:50;-0.10;99.90
11569;DHT22;5840;46.894;15.542;2023-02-01T00:14:17;-0.20;99.90
11569;DHT22;5840;46.894;15.542;2023-02-01T00:16:44;-0.20;99.90
11569;DHT22;5840;46.894;15.542;2023-02-01T00:19:12;-0.20;99.90
11569;DHT22;5840;46.894;15.542;2023-02-01T00:21:41;-0.30;99.90
11569;DHT22;5840;46.894;15.542;2023-02-01T00:24:09;-0.20;99.90
11569;DHT22;5840;46.894;15.542;2023-02-01T00:26:38;-0.20;99.90
11569;DHT22;5840;46.894;15.542;2023-02-01T00:29:08;-0.20;99.90
11569;DHT22;5840;46.894;15.542;2023-02-01T00:31:37;-0.30;99.90
11569;DHT22;5840;46.894;15.542;2023-02-01T00:34:04;-0.30;99.90
11569;DHT22;5840;46.894;15.542;2023-02-01T00:36:31;-0.30;99.90
11569;DHT22;5840;46.894;15.542;2023-02-01T00:38:59;-0.30;99.90
11569;DHT22;5840;46.894;15.542;2023-02-01T00:41:26;-0.40;99.90
11569;DHT22;5840;46.894;15.542;2023-02-01T00:43:53;-0.40;99.90
11569;DHT22;5840;46.894;15.542;2023-02-01T00:46:20;-0.50;99.90
11569;DHT22;5840;46.894;15.542;2023-02-01T00:48:48;-0.50;99.90
11569;DHT22;5840;46.894;15.542;2023-02-01T00:51:19;-0.50;99.90
11569;DHT22;5840;46.894;15.542;2023-02-01T00:53:46;-0.50;99.90
11569;DHT22;5840;46.894;15.542;2023-02-01T00:56:15;-0.50;99.90
11569;DHT22;5840;46.894;15.542;2023-02-01T00:58:42;-0.50;99.90
11569;DHT22;5840;46.894;15.542;2023-02-01T01:01:11;-0.50;99.90
11569;DHT22;5840;46.894;15.542;2023-02-01T01:03:40;-0.50;99.90
11569;DHT22;5840;46.894;15.542;2023-02-01T01:06:09;-0.50;99.90
11569;DHT22;5840;46.894;15.542;2023-02-01T01:08:37;-0.50;99.90
11569;DHT22;5840;46.894;15.542;2023-02-01T01:11:05;-0.50;99.90
11569;DHT22;5840;46.894;15.542;2023-02-01T01:13:34;-0.60;99.90
11569;DHT22;5840;46.894;15.542;2023-02-01T01:16:02;-0.60;99.90
11569;DHT22;5840;46.894;15.542;2023-02-01T01:18:30;-0.50;99.90
11569;DHT22;5840;46.894;15.542;2023-02-01T01:20:57;-0.60;99.90
11569;DHT22;5840;46.894;15.542;2023-02-01T01:23:25;-0.60;99.90
11569;DHT22;5840;46.894;15.542;2023-02-01T01:25:52;-0.60;99.90
11569;DHT22;5840;46.894;15.542;2023-02-01T01:28:19;-0.60;99.90
11569;DHT22;5840;46.894;15.542;2023-02-01T01:30:47;-0.60;99.90
11569;DHT22;5840;46.894;15.542;2023-02-01T01:33:14;-0.70;99.90
11569;DHT22;5840;46.894;15.542;2023-02-01T01:35:41;-0.60;99.90
11569;DHT22;5840;46.894;15.542;2023-02-01T01:38:09;-0.70;99.90
11569;DHT22;5840;46.894;15.542;2023-02-01T01:40:37;-0.70;99.90
11569;DHT22;5840;46.894;15.542;2023-02-01T01:43:12;-0.70;99.90
11569;DHT22;5840;46.894;15.542;2023-02-01T01:45:39;-0.80;99.90
11569;DHT22;5840;46.894;15.542;2023-02-01T01:48:13;-0.80;99.90
11569;DHT22;5840;46.894;15.542;2023-02-01T01:50:46;-0.80;99.90
11569;DHT22;5840;46.894;15.542;2023-02-01T01:53:19;-0.80;99.90
11569;DHT22;5840;46.894;15.542;2023-02-01T01:55:47;-0.80;99.90
11569;DHT22;5840;46.894;15.542;2023-02-01T01:58:18;-0.80;99.90
11569;DHT22;5840;46.894;15.542;2023-02-01T02:00:46;-0.90;99.90
11569;DHT22;5840;46.894;15.542;2023-02-01T02:03:18;-1.00;99.90
11569;DHT22;5840;46.894;15.542;2023-02-01T02:05:49;-1.10;99.90
11569;DHT22;5840;46.894;15.542;2023-02-01T02:08:17;-1.10;99.90
11569;DHT22;5840;46.894;15.542;2023-02-01T02:10:45;-1.10;99.90
11569;DHT22;5840;46.894;15.542;2023-02-01T02:13:34;-1.10;99.90
11569;DHT22;5840;46.894;15.542;2023-02-01T02:19:08;-1.10;99.90
11569;DHT22;5840;46.894;15.542;2023-02-01T02:21:52;-1.20;99.90
11569;DHT22;5840;46.894;15.542;2023-02-01T02:24:51;-1.30;99.90
11569;DHT22;5840;46.894;15.542;2023-02-01T02:27:28;-1.30;99.90
11569;DHT22;5840;46.894;15.542;2023-02-01T02:30:39;-1.30;99.90
11569;DHT22;5840;46.894;15.542;2023-02-01T02:33:45;-1.40;99.90
11569;DHT22;5840;46.894;15.542;2023-02-01T02:36:19;-1.40;99.90
11569;DHT22;5840;46.894;15.542;2023-02-01T02:38:53;-1.40;99.90
11569;DHT22;5840;46.894;15.542;2023-02-01T02:41:28;-1.50;99.90
11569;DHT22;5840;46.894;15.542;2023-02-01T02:44:23;-1.50;99.90
11569;DHT22;5840;46.894;15.542;2023-02-01T02:47:15;-1.50;99.90
11569;DHT22;5840;46.894;15.542;2023-02-01T02:49:58;-1.50;99.90
11569;DHT22;5840;46.894;15.542;2023-02-01T02:52:51;-1.50;99.90
11569;DHT22;5840;46.894;15.542;2023-02-01T02:55:38;-1.50;99.90
11569;DHT22;5840;46.894;15.542;2023-02-01T02:58:07;-1.50;99.90
11569;DHT22;5840;46.894;15.542;2023-02-01T03:00:52;-1.50;99.90
11569;DHT22;5840;46.894;15.542;2023-02-01T03:03:38;-1.50;99.90
11569;DHT22;5840;46.894;15.542;2023-02-01T03:06:24;-1.50;99.90
11569;DHT22;5840;46.894;15.542;2023-02-01T03:08:54;-1.50;99.90
11569;DHT22;5840;46.894;15.542;2023-02-01T03:11:24;-1.50;99.90
11569;DHT22;5840;46.894;15.542;2023-02-01T03:14:14;-1.50;99.90
11569;DHT22;5840;46.894;15.542;2023-02-01T03:16:44;-1.50;99.90
11569;DHT22;5840;46.894;15.542;2023-02-01T03:19:17;-1.50;99.90
11569;DHT22;5840;46.894;15.542;2023-02-01T03:21:50;-1.60;99.90
11569;DHT22;5840;46.894;15.542;2023-02-01T03:24:23;-1.50;99.90
11569;DHT22;5840;46.894;15.542;2023-02-01T03:27:02;-1.50;99.90
11569;DHT22;5840;46.894;15.542;2023-02-01T03:29:34;-1.50;99.90
11569;DHT22;5840;46.894;15.542;2023-02-01T03:32:04;-1.50;99.90
11569;DHT22;5840;46.894;15.542;2023-02-01T03:34:31;-1.50;99.90
11569;DHT22;5840;46.894;15.542;2023-02-01T03:37:02;-1.50;99.90
11569;DHT22;5840;46.894;15.542;2023-02-01T03:39:34;-1.50;99.90
11569;DHT22;5840;46.894;15.542;2023-02-01T03:42:06;-1.60;99.90
11569;DHT22;5840;46.894;15.542;2023-02-01T03:44:40;-1.60;99.90
11569;DHT22;5840;46.894;15.542;2023-02-01T03:47:11;-1.60;99.90
11569;DHT22;5840;46.894;15.542;2023-02-01T03:49:41;-1.60;99.90
11569;DHT22;5840;46.894;15.542;2023-02-01T03:52:13;-1.60;99.90
11569;DHT22;5840;46.894;15.542;2023-02-01T03:54:41;-1.60;99.90
11569;DHT22;5840;46.894;15.542;2023-02-01T03:57:11;-1.70;99.90
11569;DHT22;5840;46.894;15.542;2023-02-01T03:59:39;-1.70;99.90
11569;DHT22;5840;46.894;15.542;2023-02-01T04:02:07;-1.70;99.90
11569;DHT22;5840;46.894;15.542;2023-02-01T04:04:35;-1.70;99.90
11569;DHT22;5840;46.894;15.542;2023-02-01T04:07:02;-1.70;99.90
11569;DHT22;5840;46.894;15.542;2023-02-01T04:09:32;-1.70;99.90
11569;DHT22;5840;46.894;15.542;2023-02-01T04:11:59;-1.70;99.90
11569;DHT22;5840;46.894;15.542;2023-02-01T04:14:26;-1.70;99.90
11569;DHT22;5840;46.894;15.542;2023-02-01T04:16:53;-1.80;99.90
11569;DHT22;5840;46.894;15.542;2023-02-01T04:19:19;-1.80;99.90
11569;DHT22;5840;46.894;15.542;2023-02-01T04:21:46;-1.80;99.90
11569;DHT22;5840;46.894;15.542;2023-02-01T04:24:13;-1.90;99.90
11569;DHT22;5840;46.894;15.542;2023-02-01T04:26:42;-1.80;99.90
11569;DHT22;5840;46.894;15.542;2023-02-01T04:29:09;-1.80;99.90
11569;DHT22;5840;46.894;15.542;2023-02-01T04:31:36;-1.80;99.90
11569;DHT22;5840;46.894;15.542;2023-02-01T04:34:03;-1.80;99.90
11569;DHT22;5840;46.894;15.542;2023-02-01T04:36:29;-1.80;99.90
11569;DHT22;5840;46.894;15.542;2023-02-01T04:38:56;-1.70;99.90
11569;DHT22;5840;46.894;15.542;2023-02-01T04:41:23;-1.70;99.90
11569;DHT22;5840;46.894;15.542;2023-02-01T04:43:52;-1.70;99.90
11569;DHT22;5840;46.894;15.542;2023-02-01T04:46:19;-1.80;99.90
11569;DHT22;5840;46.894;15.542;2023-02-01T04:48:46;-1.80;99.90
11569;DHT22;5840;46.894;15.542;2023-02-01T04:51:13;-1.80;99.90
11569;DHT22;5840;46.894;15.542;2023-02-01T04:53:40;-1.80;99.90
11569;DHT22;5840;46.894;15.542;2023-02-01T04:56:07;-1.80;99.90
11569;DHT22;5840;46.894;15.542;2023-02-01T04:58:34;-1.80;99.90
11569;DHT22;5840;46.894;15.542;2023-02-01T05:01:04;-1.80;99.90
11569;DHT22;5840;46.894;15.542;2023-02-01T05:03:31;-1.80;99.90
11569;DHT22;5840;46.894;15.542;2023-02-01T05:05:59;-1.80;99.90
11569;DHT22;5840;46.894;15.542;2023-02-01T05:08:26;-1.80;99.90
11569;DHT22;5840;46.894;15.542;2023-02-01T05:10:54;-1.80;99.90
11569;DHT22;5840;46.894;15.542;2023-02-01T05:13:21;-1.90;99.90
11569;DHT22;5840;46.894;15.542;2023-02-01T05:16:07;-1.80;99.90
11569;DHT22;5840;46.894;15.542;2023-02-01T05:18:33;-1.90;99.90
11569;DHT22;5840;46.894;15.542;2023-02-01T05:21:00;-1.90;99.90
11569;DHT22;5840;46.894;15.542;2023-02-01T05:23:27;-1.90;99.90
11569;DHT22;5840;46.894;15.542;2023-02-01T05:25:58;-1.90;99.90
11569;DHT22;5840;46.894;15.542;2023-02-01T05:28:26;-2.00;99.90
11569;DHT22;5840;46.894;15.542;2023-02-01T05:30:53;-2.00;99.90
11569;DHT22;5840;46.894;15.542;2023-02-01T05:33:21;-2.00;99.90
11569;DHT22;5840;46.894;15.542;2023-02-01T05:35:49;-2.00;99.90
11569;DHT22;5840;46.894;15.542;2023-02-01T05:38:16;-2.00;99.90
11569;DHT22;5840;46.894;15.542;2023-02-01T05:40:43;-2.10;99.90
11569;DHT22;5840;46.894;15.542;2023-02-01T05:43:15;-2.10;99.90
11569;DHT22;5840;46.894;15.542;2023-02-01T05:45:42;-2.10;99.90
11569;DHT22;5840;46.894;15.542;2023-02-01T05:48:09;-2.20;99.90
11569;DHT22;5840;46.894;15.542;2023-02-01T05:50:37;-2.20;99.90
11569;DHT22;5840;46.894;15.542;2023-02-01T05:53:05;-2.20;99.90
11569;DHT22;5840;46.894;15.542;2023-02-01T05:55:32;-2.20;99.90
11569;DHT22;5840;46.894;15.542;2023-02-01T05:57:58;-2.20;99.90
11569;DHT22;5840;46.894;15.542;2023-02-01T06:00:26;-2.30;99.90
11569;DHT22;5840;46.894;15.542;2023-02-01T06:02:52;-2.30;99.90
11569;DHT22;5840;46.894;15.542;2023-02-01T06:05:19;-2.30;99.90
11569;DHT22;5840;46.894;15.542;2023-02-01T06:07:48;-2.40;99.90
11569;DHT22;5840;46.894;15.542;2023-02-01T06:10:16;-2.40;99.90
11569;DHT22;5840;46.894;15.542;2023-02-01T06:12:43;-2.30;99.90
11569;DHT22;5840;46.894;15.542;2023-02-01T06:15:11;-2.20;99.90
11569;DHT22;5840;46.894;15.542;2023-02-01T06:17:38;-2.20;99.90
11569;DHT22;5840;46.894;15.542;2023-02-01T06:20:07;-2.10;99.90
11569;DHT22;5840;46.894;15.542;2023-02-01T06:22:34;-2.10;99.90
11569;DHT22;5840;46.894;15.542;2023-02-01T06:25:03;-2.10;99.90
11569;DHT22;5840;46.894;15.542;2023-02-01T06:27:31;-2.00;99.90
11569;DHT22;5840;46.894;15.542;2023-02-01T06:29:58;-2.00;99.90
11569;DHT22;5840;46.894;15.542;2023-02-01T06:32:25;-2.10;99.90
11569;DHT22;5840;46.894;15.542;2023-02-01T06:34:52;-2.00;99.90
11569;DHT22;5840;46.894;15.542;2023-02-01T06:37:19;-2.00;99.90
11569;DHT22;5840;46.894;15.542;2023-02-01T06:39:46;-2.00;99.90
11569;DHT22;5840;46.894;15.542;2023-02-01T06:42:15;-2.00;99.90
11569;DHT22;5840;46.894;15.542;2023-02-01T06:44:42;-2.00;99.90
11569;DHT22;5840;46.894;15.542;2023-02-01T06:47:08;-1.90;99.90
11569;DHT22;5840;46.894;15.542;2023-02-01T06:49:35;-1.80;99.90
11569;DHT22;5840;46.894;15.542;2023-02-01T06:52:02;-1.90;99.90
11569;DHT22;5840;46.894;15.542;2023-02-01T06:54:29;-1.90;99.90
11569;DHT22;5840;46.894;15.542;2023-02-01T06:56:59;-1.90;99.90
11569;DHT22;5840;46.894;15.542;2023-02-01T06:59:27;-1.90;99.90
11569;DHT22;5840;46.894;15.542;2023-02-01T07:01:54;-1.90;99.90
11569;DHT22;5840;46.894;15.542;2023-02-01T07:04:21;-1.90;99.90
11569;DHT22;5840;46.894;15.542;2023-02-01T07:06:48;-1.80;99.90
11569;DHT22;5840;46.894;15.542;2023-02-01T07:09:15;-1.70;99.90
11569;DHT22;5840;46.894;15.542;2023-02-01T07:11:42;-1.40;99.90
11569;DHT22;5840;46.894;15.542;2023-02-01T07:14:09;-1.10;99.90
11569;DHT22;5840;46.894;15.542;2023-02-01T07:16:38;-0.90;99.90
11569;DHT22;5840;46.894;15.542;2023-02-01T07:19:05;-0.60;99.90
11569;DHT22;5840;46.894;15.542;2023-02-01T07:21:32;-0.30;99.90
11569;DHT22;5840;46.894;15.542;2023-02-01T07:23:59;0.00;99.90
11569;DHT22;5840;46.894;15.542;2023-02-01T07:26:26;0.10;99.90
11569;DHT22;5840;46.894;15.542;2023-02-01T07:28:53;0.20;99.90
11569;DHT22;5840;46.894;15.542;2023-02-01T07:31:20;0.40;99.90
11569;DHT22;5840;46.894;15.542;2023-02-01T07:33:49;0.70;99.90
11569;DHT22;5840;46.894;15.542;2023-02-01T07:36:18;1.00;99.90
11569;DHT22;5840;46.894;15.542;2023-02-01T07:38:46;1.30;99.90
11569;DHT22;5840;46.894;15.542;2023-02-01T07:41:13;1.50;99.90
11569;DHT22;5840;46.894;15.542;2023-02-01T07:43:41;1.80;99.90
11569;DHT22;5840;46.894;15.542;2023-02-01T07:46:09;2.10;99.90
11569;DHT22;5840;46.894;15.542;2023-02-01T07:48:36;2.30;99.90
11569;DHT22;5840;46.894;15.542;2023-02-01T07:51:08;2.60;99.90
11569;DHT22;5840;46.894;15.542;2023-02-01T07:53:36;2.90;99.90
11569;DHT22;5840;46.894;15.542;2023-02-01T07:56:10;3.10;99.90
11569;DHT22;5840;46.894;15.542;2023-02-01T07:58:37;3.40;99.90
11569;DHT22;5840;46.894;15.542;2023-02-01T08:01:04;3.70;99.90
11569;DHT22;5840;46.894;15.542;2023-02-01T08:03:46;3.90;99.90
11569;DHT22;5840;46.894;15.542;2023-02-01T08:06:15;4.20;99.90
11569;DHT22;5840;46.894;15.542;2023-02-01T08:08:42;4.50;99.90
11569;DHT22;5840;46.894;15.542;2023-02-01T08:11:11;4.70;99.90
11569;DHT22;5840;46.894;15.542;2023-02-01T08:13:38;4.90;99.90
11569;DHT22;5840;46.894;15.542;2023-02-01T08:16:07;5.00;99.90
11569;DHT22;5840;46.894;15.542;2023-02-01T08:18:34;4.80;99.90
11569;DHT22;5840;46.894;15.542;2023-02-01T08:21:06;4.70;99.90
11569;DHT22;5840;46.894;15.542;2023-02-01T08:23:35;4.50;99.90
11569;DHT22;5840;46.894;15.542;2023-02-01T08:26:06;4.30;99.90
11569;DHT22;5840;46.894;15.542;2023-02-01T08:28:34;4.30;99.90
11569;DHT22;5840;46.894;15.542;2023-02-01T08:31:04;4.40;99.90
11569;DHT22;5840;46.894;15.542;2023-02-01T08:33:32;4.30;99.90
11569;DHT22;5840;46.894;15.542;2023-02-01T08:36:01;4.20;99.90
11569;DHT22;5840;46.894;15.542;2023-02-01T08:38:28;4.20;99.90
11569;DHT22;5840;46.894;15.542;2023-02-01T08:40:57;4.10;99.90
11569;DHT22;5840;46.894;15.542;2023-02-01T08:43:24;3.80;99.90
11569;DHT22;5840;46.894;15.542;2023-02-01T08:45:54;3.60;99.90
11569;DHT22;5840;46.894;15.542;2023-02-01T08:48:22;3.50;99.90
11569;DHT22;5840;46.894;15.542;2023-02-01T08:50:49;3.30;99.90
11569;DHT22;5840;46.894;15.542;2023-02-01T08:53:16;3.10;99.90
11569;DHT22;5840;46.894;15.542;2023-02-01T08:55:44;2.90;99.90
11569;DHT22;5840;46.894;15.542;2023-02-01T08:58:13;2.80;99.90
11569;DHT22;5840;46.894;15.542;2023-02-01T09:00:42;2.70;99.90
11569;DHT22;5840;46.894;15.542;2023-02-01T09:03:11;2.70;99.90
11569;DHT22;5840;46.894;15.542;2023-02-01T09:05:38;2.60;99.90
11569;DHT22;5840;46.894;15.542;2023-02-01T09:08:06;2.60;99.90
11569;DHT22;5840;46.894;15.542;2023-02-01T09:10:33;2.80;99.90
11569;DHT22;5840;46.894;15.542;2023-02-01T09:13:01;3.30;99.90
11569;DHT22;5840;46.894;15.542;2023-02-01T09:15:30;3.80;99.90
11569;DHT22;5840;46.894;15.542;2023-02-01T09:17:57;4.10;99.90
11569;DHT22;5840;46.894;15.542;2023-02-01T09:20:24;4.30;99.90
11569;DHT22;5840;46.894;15.542;2023-02-01T09:22:51;4.40;99.90
11569;DHT22;5840;46.894;15.542;2023-02-01T09:25:18;4.50;99.90
11569;DHT22;5840;46.894;15.542;2023-02-01T09:27:45;5.00;99.90
11569;DHT22;5840;46.894;15.542;2023-02-01T09:30:13;5.60;99.90
11569;DHT22;5840;46.894;15.542;2023-02-01T09:32:41;6.00;99.90
11569;DHT22;5840;46.894;15.542;2023-02-01T09:35:08;6.50;99.90
11569;DHT22;5840;46.894;15.542;2023-02-01T09:37:35;6.90;99.90
11569;DHT22;5840;46.894;15.542;2023-02-01T09:40:04;7.00;99.90
11569;DHT22;5840;46.894;15.542;2023-02-01T09:42:46;7.20;99.90
11569;DHT22;5840;46.894;15.542;2023-02-01T09:45:20;7.20;99.90
11569;DHT22;5840;46.894;15.542;2023-02-01T09:47:53;6.90;99.90
11569;DHT22;5840;46.894;15.542;2023-02-01T09:50:24;6.70;99.90
11569;DHT22;5840;46.894;15.542;2023-02-01T09:52:55;6.50;99.90
11569;DHT22;5840;46.894;15.542;2023-02-01T09:55:30;6.80;99.90
11569;DHT22;5840;46.894;15.542;2023-02-01T09:58:02;7.20;99.00
11569;DHT22;5840;46.894;15.542;2023-02-01T10:00:34;7.40;99.00
11569;DHT22;5840;46.894;15.542;2023-02-01T10:03:04;7.70;99.10
11569;DHT22;5840;46.894;15.542;2023-02-01T10:05:45;8.00;95.90
11569;DHT22;5840;46.894;15.542;2023-02-01T10:08:21;8.30;97.40
11569;DHT22;5840;46.894;15.542;2023-02-01T10:10:52;8.50;97.60
11569;DHT22;5840;46.894;15.542;2023-02-01T10:13:32;8.80;96.20
11569;DHT22;5840;46.894;15.542;2023-02-01T10:16:13;8.90;94.90
11569;DHT22;5840;46.894;15.542;2023-02-01T10:21:50;9.40;95.50
11569;DHT22;5840;46.894;15.542;2023-02-01T10:24:40;9.70;94.60
11569;DHT22;5840;46.894;15.542;2023-02-01T10:27:20;9.90;94.10
11569;DHT22;5840;46.894;15.542;2023-02-01T10:29:51;10.00;94.20
11569;DHT22;5840;46.894;15.542;2023-02-01T10:32:21;10.10;92.80
11569;DHT22;5840;46.894;15.542;2023-02-01T10:34:55;10.30;93.00
11569;DHT22;5840;46.894;15.542;2023-02-01T10:37:27;10.40;93.60
11569;DHT22;5840;46.894;15.542;2023-02-01T10:39:55;10.30;92.70
11569;DHT22;5840;46.894;15.542;2023-02-01T10:42:26;10.50;93.30
11569;DHT22;5840;46.894;15.542;2023-02-01T10:44:55;10.60;91.60
11569;DHT22;5840;46.894;15.542;2023-02-01T10:47:23;10.70;91.10
11569;DHT22;5840;46.894;15.542;2023-02-01T10:49:56;10.40;88.00
11569;DHT22;5840;46.894;15.542;2023-02-01T10:52:36;10.20;91.20
11569;DHT22;5840;46.894;15.542;2023-02-01T10:55:26;10.20;91.10
11569;DHT22;5840;46.894;15.542;2023-02-01T10:57:57;10.20;90.40
11569;DHT22;5840;46.894;15.542;2023-02-01T11:00:25;10.30;90.50
11569;DHT22;5840;46.894;15.542;2023-02-01T11:02:53;10.50;90.60
11569;DHT22;5840;46.894;15.542;2023-02-01T11:05:24;10.80;91.70
11569;DHT22;5840;46.894;15.542;2023-02-01T11:07:54;11.00;91.60
11569;DHT22;5840;46.894;15.542;2023-02-01T11:10:38;11.30;91.30
11569;DHT22;5840;46.894;15.542;2023-02-01T11:13:13;11.50;90.80
11569;DHT22;5840;46.894;15.542;2023-02-01T11:15:43;11.40;90.10
11569;DHT22;5840;46.894;15.542;2023-02-01T11:18:17;11.00;91.50
11569;DHT22;5840;46.894;15.542;2023-02-01T11:20:48;10.80;91.00
11569;DHT22;5840;46.894;15.542;2023-02-01T11:23:20;10.90;92.40
11569;DHT22;5840;46.894;15.542;2023-02-01T11:25:50;11.10;92.00
11569;DHT22;5840;46.894;15.542;2023-02-01T11:28:18;11.40;91.60
11569;DHT22;5840;46.894;15.542;2023-02-01T11:30:47;11.20;91.30
11569;DHT22;5840;46.894;15.542;2023-02-01T11:33:17;11.30;92.20
11569;DHT22;5840;46.894;15.542;2023-02-01T11:35:47;11.50;92.10
11569;DHT22;5840;46.894;15.542;2023-02-01T11:38:22;10.80;91.60
11569;DHT22;5840;46.894;15.542;2023-02-01T11:40:49;10.90;92.50
11569;DHT22;5840;46.894;15.542;2023-02-01T11:43:22;10.90;92.40
11569;DHT22;5840;46.894;15.542;2023-02-01T11:45:55;11.20;92.00
11569;DHT22;5840;46.894;15.542;2023-02-01T11:48:24;11.60;93.00
11569;DHT22;5840;46.894;15.542;2023-02-01T11:51:01;12.00;92.50
11569;DHT22;5840;46.894;15.542;2023-02-01T11:53:44;12.20;91.60
11569;DHT22;5840;46.894;15.542;2023-02-01T11:56:22;12.60;90.90
11569;DHT22;5840;46.894;15.542;2023-02-01T11:59:08;13.10;91.70
11569;DHT22;5840;46.894;15.542;2023-02-01T12:01:47;13.10;90.90
11569;DHT22;5840;46.894;15.542;2023-02-01T12:10:28;14.10;84.70
11569;DHT22;5840;46.894;15.542;2023-02-01T12:13:07;14.40;82.30
11569;DHT22;5840;46.894;15.542;2023-02-01T12:16:00;14.50;77.70
11569;DHT22;5840;46.894;15.542;2023-02-01T12:19:05;14.80;77.80
11569;DHT22;5840;46.894;15.542;2023-02-01T12:21:49;15.10;76.70
11569;DHT22;5840;46.894;15.542;2023-02-01T12:24:41;15.20;76.10
11569;DHT22;5840;46.894;15.542;2023-02-01T12:27:43;14.80;77.20
11569;DHT22;5840;46.894;15.542;2023-02-01T12:30:39;14.80;79.00
11569;DHT22;5840;46.894;15.542;2023-02-01T12:33:18;15.00;77.40
11569;DHT22;5840;46.894;15.542;2023-02-01T12:36:06;15.10;72.80
11569;DHT22;5840;46.894;15.542;2023-02-01T12:38:43;15.20;72.10
11569;DHT22;5840;46.894;15.542;2023-02-01T12:44:24;14.90;68.30
11569;DHT22;5840;46.894;15.542;2023-02-01T12:46:57;14.80;69.00
11569;DHT22;5840;46.894;15.542;2023-02-01T12:49:41;15.10;71.80
11569;DHT22;5840;46.894;15.542;2023-02-01T12:52:14;15.30;69.50
11569;DHT22;5840;46.894;15.542;2023-02-01T12:54:48;15.30;64.80
11569;DHT22;5840;46.894;15.542;2023-02-01T12:57:21;15.30;65.70
11569;DHT22;5840;46.894;15.542;2023-02-01T12:59:54;14.90;63.20
11569;DHT22;5840;46.894;15.542;2023-02-01T13:02:27;14.70;65.00
11569;DHT22;5840;46.894;15.542;2023-02-01T13:04:59;14.40;63.60
11569;DHT22;5840;46.894;15.542;2023-02-01T13:07:31;14.30;63.40
11569;DHT22;5840;46.894;15.542;2023-02-01T13:10:05;14.30;65.40
11569;DHT22;5840;46.894;15.542;2023-02-01T13:12:44;14.30;61.90
11569;DHT22;5840;46.894;15.542;2023-02-01T13:15:19;14.20;62.50
11569;DHT22;5840;46.894;15.542;2023-02-01T13:17:49;14.00;62.60
11569;DHT22;5840;46.894;15.542;2023-02-01T13:20:23;13.50;62.90
11569;DHT22;5840;46.894;15.542;2023-02-01T13:22:57;13.20;64.10
11569;DHT22;5840;46.894;15.542;2023-02-01T13:25:34;13.20;66.80
11569;DHT22;5840;46.894;15.542;2023-02-01T13:28:06;13.40;66.00
11569;DHT22;5840;46.894;15.542;2023-02-01T13:30:47;13.60;66.10
11569;DHT22;5840;46.894;15.542;2023-02-01T13:33:42;13.60;65.10
11569;DHT22;5840;46.894;15.542;2023-02-01T13:42:25;13.50;67.60
11569;DHT22;5840;46.894;15.542;2023-02-01T13:44:57;13.40;65.10
11569;DHT22;5840;46.894;15.542;2023-02-01T13:47:28;13.30;65.40
11569;DHT22;5840;46.894;15.542;2023-02-01T13:49:59;13.10;66.80
11569;DHT22;5840;46.894;15.542;2023-02-01T13:52:31;12.80;65.90
11569;DHT22;5840;46.894;15.542;2023-02-01T13:55:23;12.50;67.70
11569;DHT22;5840;46.894;15.542;2023-02-01T13:57:58;12.40;68.60
11569;DHT22;5840;46.894;15.542;2023-02-01T14:00:30;12.50;68.20
11569;DHT22;5840;46.894;15.542;2023-02-01T14:03:16;12.50;66.80
11569;DHT22;5840;46.894;15.542;2023-02-01T14:05:59;12.60;67.50
11569;DHT22;5840;46.894;15.542;2023-02-01T14:08:42;12.60;67.20
11569;DHT22;5840;46.894;15.542;2023-02-01T14:11:35;12.70;67.40
11569;DHT22;5840;46.894;15.542;2023-02-01T14:17:38;12.80;67.00
11569;DHT22;5840;46.894;15.542;2023-02-01T14:23:12;12.50;66.00
11569;DHT22;5840;46.894;15.542;2023-02-01T14:25:40;12.50;66.30
11569;DHT22;5840;46.894;15.542;2023-02-01T14:28:11;12.40;67.30
11569;DHT22;5840;46.894;15.542;2023-02-01T14:30:41;12.40;65.90
11569;DHT22;5840;46.894;15.542;2023-02-01T14:33:18;12.40;66.90
11569;DHT22;5840;46.894;15.542;2023-02-01T14:36:00;12.40;65.60
11569;DHT22;5840;46.894;15.542;2023-02-01T14:38:28;12.40;66.50
11569;DHT22;5840;46.894;15.542;2023-02-01T14:41:16;12.30;66.10
11569;DHT22;5840;46.894;15.542;2023-02-01T14:44:27;12.30;67.70
11569;DHT22;5840;46.894;15.542;2023-02-01T14:47:26;12.10;67.30
11569;DHT22;5840;46.894;15.542;2023-02-01T14:49:58;11.90;65.80
11569;DHT22;5840;46.894;15.542;2023-02-01T14:52:32;11.80;65.90
11569;DHT22;5840;46.894;15.542;2023-02-01T14:55:04;11.70;68.90
11569;DHT22;5840;46.894;15.542;2023-02-01T14:57:34;11.70;68.20
11569;DHT22;5840;46.894;15.542;2023-02-01T15:00:14;11.80;67.80
11569;DHT22;5840;46.894;15.542;2023-02-01T15:02:43;11.80;68.70
11569;DHT22;5840;46.894;15.542;2023-02-01T15:05:28;11.60;68.40
11569;DHT22;5840;46.894;15.542;2023-02-01T15:08:06;11.40;69.10
11569;DHT22;5840;46.894;15.542;2023-02-01T15:10:42;11.40;69.90
11569;DHT22;5840;46.894;15.542;2023-02-01T15:13:21;11.40;72.30
11569;DHT22;5840;46.894;15.542;2023-02-01T15:16:02;11.40;71.60
11569;DHT22;5840;46.894;15.542;2023-02-01T15:18:30;11.40;71.50
11569;DHT22;5840;46.894;15.542;2023-02-01T15:21:00;11.30;70.90
11569;DHT22;5840;46.894;15.542;2023-02-01T15:23:27;11.00;71.50
11569;DHT22;5840;46.894;15.542;2023-02-01T15:25:54;10.80;72.70
11569;DHT22;5840;46.894;15.542;2023-02-01T15:28:22;10.50;72.00
11569;DHT22;5840;46.894;15.542;2023-02-01T15:30:54;10.30;73.40
11569;DHT22;5840;46.894;15.542;2023-02-01T15:33:22;10.10;72.90
11569;DHT22;5840;46.894;15.542;2023-02-01T15:35:50;10.10;74.40
11569;DHT22;5840;46.894;15.542;2023-02-01T15:38:38;9.90;73.00
11569;DHT22;5840;46.894;15.542;2023-02-01T15:41:08;9.80;73.60
11569;DHT22;5840;46.894;15.542;2023-02-01T15:43:38;9.60;75.30
11569;DHT22;5840;46.894;15.542;2023-02-01T15:46:09;9.40;74.80
11569;DHT22;5840;46.894;15.542;2023-02-01T15:48:39;9.30;74.40
11569;DHT22;5840;46.894;15.542;2023-02-01T15:51:15;9.20;75.20
11569;DHT22;5840;46.894;15.542;2023-02-01T15:53:51;9.10;75.20
11569;DHT22;5840;46.894;15.542;2023-02-01T15:56:23;8.90;75.50
11569;DHT22;5840;46.894;15.542;2023-02-01T15:58:55;8.80;77.40
11569;DHT22;5840;46.894;15.542;2023-02-01T16:01:23;8.70;77.00
11569;DHT22;5840;46.894;15.542;2023-02-01T16:04:03;8.60;78.00
11569;DHT22;5840;46.894;15.542;2023-02-01T16:06:31;8.50;78.20
11569;DHT22;5840;46.894;15.542;2023-02-01T16:09:14;8.40;77.50
11569;DHT22;5840;46.894;15.542;2023-02-01T16:11:47;8.30;77.90
11569;DHT22;5840;46.894;15.542;2023-02-01T16:14:15;8.20;78.60
11569;DHT22;5840;46.894;15.542;2023-02-01T16:16:42;8.10;78.90
11569;DHT22;5840;46.894;15.542;2023-02-01T16:19:09;8.00;79.80
11569;DHT22;5840;46.894;15.542;2023-02-01T16:21:36;7.90;81.10
11569;DHT22;5840;46.894;15.542;2023-02-01T16:24:05;7.80;79.50
11569;DHT22;5840;46.894;15.542;2023-02-01T16:26:33;7.80;80.20
11569;DHT22;5840;46.894;15.542;2023-02-01T16:29:01;7.70;80.80
11569;DHT22;5840;46.894;15.542;2023-02-01T16:31:34;7.60;81.20
11569;DHT22;5840;46.894;15.542;2023-02-01T16:34:03;7.60;81.10